Terminal Aerodrome Forecast
Issued by NWS Boston, MA

Home | Current Version | Previous Version | Text Only | Print | Product List | Glossary On
Versions: 1 2 3 4 5 6 7 8 9 10 11 12 13 14 15 16 17 18 19 20 21 22 23 24 25 26 27 28 29 30 31 32 33 34 35 36 37 38 39 40
000
FTUS41 KBOX 200538
TAFBDL
TAF
KBDL 200538Z 2006/2112 VRB03KT P6SM FEW250
     FM200800 00000KT P6SM SCT035
     FM201400 19007KT P6SM SCT250
     FM201900 19011KT P6SM SCT250
     FM210300 18007KT P6SM BKN250
     FM210600 18005KT P6SM BKN025=

USA.gov is the U.S. government's official web portal to all federal, state and local government web resources and services.